Time;durP1;ratioP1;P1;durP2;ratioP2;P2;SDS_P1;SDS_P2;PMS_P1;PMS_P2;Temp;Humidity;BMP_temperature;BMP_pressure;BME280_temperature;BME280_humidity;BME280_pressure;Samples;Min_cycle;Max_cycle;Signal;HPM_P1;HPM_P2
2023/06/03 00:02:01;;;;;;;3.35;0.90;;;11.70;99.90;;;;;;4933531;28;20061;-94
2023/06/03 00:04:42;;;;;;;4.43;0.77;;;11.70;99.90;;;;;;4956341;28;20627;-94
2023/06/03 00:07:26;;;;;;;;;;;11.70;99.90;;;;;;4955049;28;20096;-94
2023/06/03 00:10:04;;;;;;;3.75;0.80;;;11.60;99.90;;;;;;4937888;28;19930;-94
2023/06/03 00:12:59;;;;;;;1.73;0.73;;;11.50;99.90;;;;;;4937798;28;20038;-94
2023/06/03 00:15:48;;;;;;;5.85;0.80;;;11.50;99.90;;;;;;4946925;28;20061;-93
2023/06/03 00:18:23;;;;;;;3.28;0.80;;;11.50;99.90;;;;;;4938578;28;20117;-94
2023/06/03 00:21:09;;;;;;;5.13;0.90;;;11.40;99.90;;;;;;4934609;29;20066;-93
2023/06/03 00:23:45;;;;;;;2.58;0.70;;;11.50;99.90;;;;;;4927414;28;20059;-93
2023/06/03 00:26:37;;;;;;;3.50;1.00;;;11.30;99.90;;;;;;4943563;28;20115;-94
2023/06/03 00:29:34;;;;;;;;;;;;;;;;;;;;;
2023/06/03 00:32:45;;;;;;;4.45;0.70;;;11.20;99.90;;;;;;4971824;28;20051;-95
2023/06/03 00:35:33;;;;;;;1.48;0.60;;;10.90;99.90;;;;;;4937049;28;20534;-93
2023/06/03 00:38:18;;;;;;;5.25;0.70;;;11.00;99.90;;;;;;4910117;29;20048;-93
2023/06/03 00:41:19;;;;;;;3.60;0.93;;;10.90;99.90;;;;;;4921396;28;20061;-94
2023/06/03 00:43:49;;;;;;;2.50;0.60;;;10.90;99.90;;;;;;4954345;28;20051;-94
2023/06/03 00:46:45;;;;;;;6.30;1.00;;;10.70;99.90;;;;;;4930718;28;20050;-94
2023/06/03 00:49:20;;;;;;;1.48;0.60;;;10.80;99.90;;;;;;4933588;29;20138;-94
2023/06/03 00:52:02;;;;;;;4.43;0.73;;;10.80;99.90;;;;;;4927681;28;20093;-94
2023/06/03 00:54:54;;;;;;;2.00;0.50;;;10.80;99.90;;;;;;4939283;28;20061;-94
2023/06/03 00:57:59;;;;;;;2.05;0.80;;;10.60;99.90;;;;;;4939056;29;20057;-94
2023/06/03 01:00:55;;;;;;;1.35;0.68;;;10.70;99.90;;;;;;4930913;28;20090;-93
2023/06/03 01:04:02;;;;;;;1.50;0.63;;;10.60;99.90;;;;;;4956740;28;20121;-94
2023/06/03 01:07:30;;;;;;;1.33;0.60;;;10.60;99.90;;;;;;4962019;28;20133;-94
2023/06/03 01:10:18;;;;;;;2.13;0.65;;;10.50;99.90;;;;;;4936303;28;20055;-94
2023/06/03 01:13:31;;;;;;;3.25;0.85;;;10.60;99.90;;;;;;4935273;28;20087;-94
2023/06/03 01:16:12;;;;;;;2.50;0.73;;;10.50;99.90;;;;;;4901895;28;20133;-93
2023/06/03 01:18:46;;;;;;;1.92;0.90;;;10.70;99.90;;;;;;4927401;28;20133;-94
2023/06/03 01:21:49;;;;;;;4.43;1.17;;;10.20;99.90;;;;;;4936712;28;20399;-93
2023/06/03 01:24:35;;;;;;;4.78;0.63;;;10.50;99.90;;;;;;4923555;28;20095;-94
2023/06/03 01:27:37;;;;;;;2.53;0.88;;;10.40;99.90;;;;;;4926559;29;20055;-93
2023/06/03 01:30:57;;;;;;;4.13;1.00;;;10.40;99.90;;;;;;4950946;28;20109;-93
2023/06/03 01:34:12;;;;;;;2.33;0.70;;;10.30;99.90;;;;;;4935459;29;20070;-94
2023/06/03 01:36:57;;;;;;;2.60;0.70;;;10.30;99.90;;;;;;4959186;28;20101;-93
2023/06/03 01:40:00;;;;;;;3.20;0.85;;;10.20;99.90;;;;;;4937858;28;20054;-94
2023/06/03 01:42:54;;;;;;;;;;;;;;;;;;;;;
2023/06/03 01:45:59;;;;;;;3.53;0.90;;;10.70;99.90;;;;;;4955625;28;20059;-95
2023/06/03 01:48:49;;;;;;;3.60;1.00;;;10.10;99.90;;;;;;4939277;28;20089;-94
2023/06/03 01:51:53;;;;;;;;;;;;;;;;;;;;;
2023/06/03 01:54:31;;;;;;;3.40;1.00;;;10.00;99.90;;;;;;4936115;29;20106;-93
2023/06/03 01:58:03;;;;;;;3.47;0.70;;;10.00;99.90;;;;;;4938435;28;20151;-94
2023/06/03 02:00:26;;;;;;;5.32;1.00;;;10.00;99.90;;;;;;4950624;28;20084;-94
2023/06/03 02:02:55;;;;;;;3.58;0.90;;;9.80;99.90;;;;;;4937926;29;20054;-93
2023/06/03 02:05:28;;;;;;;7.00;0.95;;;9.80;99.90;;;;;;4955113;28;20105;-94
2023/06/03 02:08:36;;;;;;;3.72;1.00;;;9.80;99.90;;;;;;4942235;28;20494;-94
2023/06/03 02:11:19;;;;;;;4.85;1.05;;;9.70;99.90;;;;;;4936788;29;20043;-93
2023/06/03 02:14:18;;;;;;;;;;;;;;;;;;;;;
2023/06/03 02:17:15;;;;;;;3.33;0.90;;;9.60;99.90;;;;;;4972724;28;20345;-93
2023/06/03 02:20:20;;;;;;;2.95;1.10;;;9.50;99.90;;;;;;4927102;28;20047;-93
2023/06/03 02:23:02;;;;;;;6.10;1.25;;;9.40;99.90;;;;;;4941831;28;20514;-93
2023/06/03 02:25:52;;;;;;;3.20;0.98;;;9.30;99.90;;;;;;4958571;28;20043;-94
2023/06/03 02:28:34;;;;;;;6.13;1.10;;;9.00;99.90;;;;;;4941500;28;20049;-93
2023/06/03 02:31:24;;;;;;;3.33;1.25;;;9.20;99.90;;;;;;4952449;28;20065;-93
2023/06/03 02:34:24;;;;;;;3.75;1.08;;;9.30;99.90;;;;;;4946917;28;20507;-93
2023/06/03 02:37:02;;;;;;;6.03;1.10;;;9.10;99.90;;;;;;4958697;28;20081;-93
2023/06/03 02:39:39;;;;;;;3.85;1.30;;;9.00;99.90;;;;;;4948486;28;20608;-94
2023/06/03 02:42:36;;;;;;;4.88;0.90;;;9.00;99.90;;;;;;4941761;28;20142;-93
2023/06/03 02:45:41;;;;;;;2.25;1.08;;;8.90;99.90;;;;;;4958717;28;20082;-94
2023/06/03 02:48:49;;;;;;;3.42;1.30;;;8.90;99.90;;;;;;4888643;29;20135;-93
2023/06/03 02:51:53;;;;;;;4.25;1.08;;;8.80;99.90;;;;;;4911200;29;20504;-93
2023/06/03 02:55:16;;;;;;;3.50;1.13;;;9.00;99.90;;;;;;4908632;29;20090;-94
2023/06/03 02:58:28;;;;;;;3.83;1.27;;;8.70;99.90;;;;;;4905756;29;20134;-93
2023/06/03 03:01:24;;;;;;;3.58;0.90;;;8.70;99.90;;;;;;4918986;29;20085;-93
2023/06/03 03:04:26;;;;;;;3.17;0.95;;;8.70;99.90;;;;;;4935509;29;20047;-94
2023/06/03 03:07:11;;;;;;;5.50;1.50;;;8.70;99.90;;;;;;4935494;29;20175;-93
2023/06/03 03:09:46;;;;;;;3.30;1.10;;;8.70;99.90;;;;;;4918355;29;20054;-93
2023/06/03 03:12:33;;;;;;;;;;;;;;;;;;;;;
2023/06/03 03:15:21;;;;;;;5.05;1.65;;;8.50;99.90;;;;;;4952795;28;20134;-93
2023/06/03 03:18:07;;;;;;;2.33;1.00;;;8.50;99.90;;;;;;4939483;28;20050;-93
2023/06/03 03:20:51;;;;;;;5.13;1.50;;;8.00;99.90;;;;;;4891151;28;20055;-93
2023/06/03 03:23:30;;;;;;;5.72;1.42;;;8.40;99.90;;;;;;4939248;28;20129;-93
2023/06/03 03:26:28;;;;;;;4.22;1.10;;;8.40;99.90;;;;;;4937297;28;20056;-93
2023/06/03 03:29:36;;;;;;;7.35;1.38;;;8.10;99.90;;;;;;4937660;28;20165;-93
2023/06/03 03:32:36;;;;;;;5.68;1.20;;;8.40;99.90;;;;;;4927252;29;20067;-94
2023/06/03 03:35:52;;;;;;;2.97;1.25;;;8.50;99.90;;;;;;4941736;28;20046;-93
2023/06/03 03:38:25;;;;;;;4.63;1.55;;;8.90;99.90;;;;;;4926965;29;20051;-93
2023/06/03 03:40:57;;;;;;;3.03;1.40;;;8.60;99.90;;;;;;4937399;28;20047;-94
2023/06/03 03:43:35;;;;;;;4.18;1.38;;;8.60;99.90;;;;;;4937528;28;20070;-93
2023/06/03 03:46:08;;;;;;;6.10;1.30;;;8.70;99.90;;;;;;4939571;28;20529;-94
2023/06/03 03:48:54;;;;;;;4.75;1.27;;;8.70;99.90;;;;;;4954698;28;20201;-93
2023/06/03 03:52:14;;;;;;;3.33;1.20;;;8.80;99.90;;;;;;4939357;28;20491;-93
2023/06/03 03:54:45;;;;;;;6.38;1.27;;;8.80;99.90;;;;;;4926336;29;20443;-93
2023/06/03 03:57:45;;;;;;;3.50;1.13;;;9.00;99.90;;;;;;4934506;29;20500;-93
2023/06/03 04:00:19;;;;;;;5.55;1.17;;;9.10;99.90;;;;;;4938731;28;20050;-94
2023/06/03 04:06:39;;;;;;;3.25;1.38;;;8.70;99.90;;;;;;4927679;28;20038;-93
2023/06/03 04:09:16;;;;;;;3.25;1.00;;;9.30;99.90;;;;;;4924958;29;20051;-93
2023/06/03 04:12:16;;;;;;;;;;;;;;;;;;;;;
2023/06/03 04:15:12;;;;;;;8.00;1.38;;;9.50;99.90;;;;;;4954560;28;20054;-94
2023/06/03 04:18:16;;;;;;;2.88;1.08;;;9.60;99.90;;;;;;4939026;28;20047;-94
2023/06/03 04:21:09;;;;;;;2.95;1.00;;;9.60;99.90;;;;;;4954006;28;20503;-93
2023/06/03 04:23:50;;;;;;;4.80;1.38;;;9.60;99.90;;;;;;4927471;28;20484;-92
2023/06/03 04:26:54;;;;;;;4.18;1.00;;;9.60;99.90;;;;;;4948843;28;20062;-92
2023/06/03 04:29:34;;;;;;;5.22;1.20;;;9.80;99.90;;;;;;4917501;28;20464;-93
2023/06/03 04:32:15;;;;;;;5.20;1.00;;;9.50;99.90;;;;;;4937998;28;20050;-93
2023/06/03 04:35:07;;;;;;;3.63;1.10;;;10.50;99.90;;;;;;4929092;28;20474;-94
2023/06/03 04:38:04;;;;;;;3.72;1.10;;;10.10;99.90;;;;;;4948842;28;20045;-94
2023/06/03 04:40:39;;;;;;;3.53;1.27;;;10.20;99.90;;;;;;4937135;28;20123;-93
2023/06/03 04:43:20;;;;;;;5.28;1.60;;;10.20;99.90;;;;;;4939123;28;20098;-93
2023/06/03 04:46:10;;;;;;;6.53;1.20;;;10.30;99.90;;;;;;4935690;29;20050;-93
2023/06/03 04:49:07;;;;;;;3.75;0.95;;;10.70;99.90;;;;;;4931680;28;20051;-93
2023/06/03 04:52:04;;;;;;;4.47;0.90;;;10.50;99.90;;;;;;4937039;28;20043;-93
2023/06/03 04:54:45;;;;;;;;;;;10.60;99.90;;;;;;4959317;28;20109;-93
2023/06/03 04:57:50;;;;;;;3.78;1.20;;;10.50;99.90;;;;;;4940914;28;19925;-92
2023/06/03 05:00:48;;;;;;;3.92;1.20;;;10.80;99.90;;;;;;4953538;28;20051;-93
2023/06/03 05:03:20;;;;;;;5.50;1.30;;;10.60;99.90;;;;;;4929835;28;20047;-92
2023/06/03 05:06:39;;;;;;;4.35;0.98;;;10.90;99.90;;;;;;4937870;28;20486;-93
2023/06/03 05:09:10;;;;;;;3.20;1.23;;;11.10;99.90;;;;;;4925343;29;20055;-93
2023/06/03 05:12:11;;;;;;;5.25;1.35;;;11.30;99.90;;;;;;4946122;28;20059;-94
2023/06/03 05:14:55;;;;;;;2.45;1.23;;;11.40;99.90;;;;;;4936531;28;20058;-93
2023/06/03 05:17:41;;;;;;;3.97;1.23;;;11.60;99.90;;;;;;4938067;28;20135;-94
2023/06/03 05:20:43;;;;;;;6.68;1.45;;;11.70;99.90;;;;;;4917729;29;20055;-93
2023/06/03 05:23:17;;;;;;;4.70;1.20;;;11.70;99.90;;;;;;4948111;28;20098;-94
2023/06/03 05:26:10;;;;;;;6.15;1.33;;;11.70;99.90;;;;;;4952681;28;20085;-94
2023/06/03 05:28:54;;;;;;;7.25;1.60;;;11.70;99.90;;;;;;4947683;28;20533;-94
2023/06/03 05:32:28;;;;;;;3.85;1.10;;;11.80;99.90;;;;;;4936091;29;20075;-94
2023/06/03 05:34:44;;;;;;;3.38;0.90;;;11.80;99.90;;;;;;4949541;28;20043;-94
2023/06/03 05:40:35;;;;;;;3.40;0.98;;;12.10;99.90;;;;;;4924456;28;20109;-93
2023/06/03 05:43:01;;;;;;;;;;;12.20;99.90;;;;;;4931714;28;20057;-93
2023/06/03 05:45:54;;;;;;;2.80;0.90;;;12.40;99.90;;;;;;4956523;28;20401;-93
2023/06/03 05:48:34;;;;;;;3.58;1.00;;;12.70;99.90;;;;;;4950266;28;20825;-93
2023/06/03 05:51:26;;;;;;;5.35;1.20;;;12.70;99.90;;;;;;4935444;29;20055;-93
2023/06/03 05:54:12;;;;;;;6.63;1.45;;;12.70;99.90;;;;;;4924943;28;20085;-93
2023/06/03 05:56:44;;;;;;;4.63;0.98;;;12.80;99.90;;;;;;4955756;28;20114;-93
2023/06/03 05:59:29;;;;;;;3.58;1.05;;;12.90;99.90;;;;;;4955924;28;20090;-94
2023/06/03 06:12:08;;;;;;;2.20;0.90;;;13.40;99.90;;;;;;4906296;29;20042;-95
2023/06/03 06:15:17;;;;;;;2.92;0.88;;;13.70;99.90;;;;;;4913148;29;20070;-94
2023/06/03 06:19:03;;;;;;;2.63;0.85;;;13.90;99.90;;;;;;4914177;29;20465;-96
2023/06/03 06:25:11;;;;;;;3.33;1.00;;;14.10;99.90;;;;;;4972601;28;20039;-96
2023/06/03 06:38:18;;;;;;;;;;;;;;;;;;;;;
2023/06/03 06:41:55;;;;;;;6.50;1.05;;;14.70;99.90;;;;;;4908432;29;20042;-95
2023/06/03 06:45:38;;;;;;;3.83;0.90;;;14.90;99.90;;;;;;4903911;29;20131;-96
2023/06/03 06:48:23;;;;;;;4.75;1.17;;;15.10;99.90;;;;;;5226242;23;20054;-96
2023/06/03 06:50:51;;;;;;;3.53;1.10;;;15.30;99.90;;;;;;4920395;29;20059;-96
2023/06/03 06:53:22;;;;;;;7.05;0.95;;;15.40;99.90;;;;;;4942541;29;20046;-96
2023/06/03 06:58:33;;;;;;;9.45;1.45;;;15.60;99.90;;;;;;4958946;28;20048;-96
2023/06/03 07:01:00;;;;;;;4.72;0.85;;;15.80;99.90;;;;;;4929015;29;20483;-96
2023/06/03 07:03:41;;;;;;;2.25;0.90;;;16.00;99.90;;;;;;4927145;29;20047;-96
2023/06/03 07:06:13;;;;;;;3.30;0.65;;;16.20;99.90;;;;;;4921185;29;20047;-93
2023/06/03 07:08:39;;;;;;;2.60;0.95;;;16.50;99.90;;;;;;4915653;29;20050;-94
2023/06/03 07:11:05;;;;;;;3.13;1.00;;;16.70;99.90;;;;;;4928153;29;20075;-95
2023/06/03 07:13:31;;;;;;;5.90;0.93;;;16.90;99.90;;;;;;4911331;29;20047;-94
2023/06/03 07:15:56;;;;;;;2.97;0.90;;;17.00;99.90;;;;;;4922738;29;20051;-93
2023/06/03 07:18:23;;;;;;;2.90;0.80;;;17.10;99.90;;;;;;4917095;29;20047;-94
2023/06/03 07:20:50;;;;;;;2.83;1.05;;;17.10;99.90;;;;;;4909394;29;20035;-93
2023/06/03 07:23:21;;;;;;;2.38;0.73;;;17.20;99.90;;;;;;4916235;29;20058;-91
2023/06/03 07:25:50;;;;;;;3.45;0.77;;;17.40;99.90;;;;;;4923167;29;20048;-93
2023/06/03 07:28:18;;;;;;;2.20;0.80;;;17.60;99.90;;;;;;4914723;29;20059;-91
2023/06/03 07:30:49;;;;;;;4.28;0.90;;;17.80;99.90;;;;;;4914475;29;20050;-91
2023/06/03 07:33:25;;;;;;;4.20;0.88;;;17.90;99.90;;;;;;4920259;29;20059;-92
2023/06/03 07:35:54;;;;;;;3.58;0.90;;;18.00;99.90;;;;;;4919584;29;20097;-92
2023/06/03 07:39:09;;;;;;;5.82;1.00;;;18.00;99.90;;;;;;4910551;29;20043;-92
2023/06/03 07:41:41;;;;;;;2.25;0.77;;;17.90;99.90;;;;;;4919623;29;20069;-92
2023/06/03 07:44:09;;;;;;;5.00;0.90;;;17.60;99.90;;;;;;4916729;29;20518;-92
2023/06/03 07:46:42;;;;;;;4.00;0.40;;;17.30;99.90;;;;;;4900790;29;20052;-91
2023/06/03 07:49:10;;;;;;;3.08;0.70;;;17.10;99.90;;;;;;4918234;29;20039;-93
2023/06/03 07:51:40;;;;;;;2.72;0.70;;;16.90;99.90;;;;;;4919763;29;20165;-94
2023/06/03 07:54:18;;;;;;;2.13;0.50;;;16.80;99.90;;;;;;4919188;29;20062;-94
2023/06/03 07:56:44;;;;;;;2.28;0.77;;;16.70;99.90;;;;;;4922287;29;20063;-92
2023/06/03 07:59:21;;;;;;;1.20;0.60;;;16.60;99.90;;;;;;4916334;29;20047;-93
2023/06/03 08:01:50;;;;;;;4.82;1.05;;;16.50;99.90;;;;;;4914173;28;20051;-93
2023/06/03 08:04:32;;;;;;;8.52;2.30;;;16.40;99.90;;;;;;4925238;29;20047;-94
2023/06/03 08:07:00;;;;;;;4.88;1.40;;;16.40;99.90;;;;;;4908068;29;20225;-92
2023/06/03 08:09:32;;;;;;;4.10;1.30;;;16.30;99.90;;;;;;4915360;29;20058;-94
2023/06/03 08:12:00;;;;;;;4.20;0.70;;;16.10;99.90;;;;;;4922512;29;20054;-94
2023/06/03 08:14:26;;;;;;;1.73;0.50;;;16.30;99.90;;;;;;4919757;29;20059;-94
2023/06/03 08:17:03;;;;;;;5.10;0.65;;;16.30;99.90;;;;;;4920459;29;20114;-93
2023/06/03 08:19:29;;;;;;;2.55;0.70;;;16.40;99.90;;;;;;4908355;29;20209;-92
2023/06/03 08:21:55;;;;;;;1.55;0.50;;;16.40;99.90;;;;;;4924161;28;20047;-92
2023/06/03 08:24:21;;;;;;;3.47;0.63;;;16.60;99.90;;;;;;4927638;28;20491;-92
2023/06/03 08:26:46;;;;;;;2.70;0.60;;;16.70;99.90;;;;;;4923904;29;20185;-92
2023/06/03 08:29:12;;;;;;;4.20;0.70;;;16.80;99.90;;;;;;4918293;28;20047;-92
2023/06/03 08:31:38;;;;;;;6.55;0.60;;;16.90;99.80;;;;;;4923448;29;20106;-92
2023/06/03 08:34:06;;;;;;;2.00;0.57;;;16.90;99.40;;;;;;4919713;28;20078;-92
2023/06/03 08:36:36;;;;;;;3.35;0.60;;;17.00;99.30;;;;;;4918792;29;20145;-92
2023/06/03 08:39:11;;;;;;;3.53;0.50;;;17.10;98.70;;;;;;4917973;28;20418;-93
2023/06/03 08:41:40;;;;;;;2.28;0.40;;;17.20;98.50;;;;;;4919579;29;20539;-92
2023/06/03 08:44:32;;;;;;;2.95;0.68;;;17.40;98.40;;;;;;4918859;29;20134;-96
2023/06/03 08:46:58;;;;;;;2.25;0.50;;;17.50;97.40;;;;;;4916255;29;20043;-91
2023/06/03 08:49:36;;;;;;;6.10;0.80;;;17.80;97.70;;;;;;4913561;29;20055;-92
2023/06/03 08:52:03;;;;;;;3.22;0.80;;;17.90;97.60;;;;;;4907876;29;20375;-93
2023/06/03 08:54:34;;;;;;;1.95;0.60;;;18.10;97.20;;;;;;4908395;29;20044;-92
2023/06/03 08:57:18;;;;;;;1.90;0.80;;;18.40;97.00;;;;;;4914319;29;20063;-92
2023/06/03 08:59:57;;;;;;;1.30;0.40;;;18.50;97.40;;;;;;4929347;29;20190;-94
2023/06/03 09:02:24;;;;;;;2.65;0.63;;;18.70;97.30;;;;;;4944538;29;20066;-93
2023/06/03 09:07:38;;;;;;;2.75;0.60;;;18.50;96.20;;;;;;4931114;29;20058;-95
2023/06/03 09:10:27;;;;;;;;;;;;;;;;;;;;;
2023/06/03 09:12:58;;;;;;;3.53;0.55;;;18.50;96.90;;;;;;4919609;29;20047;-96
2023/06/03 09:15:32;;;;;;;2.33;0.63;;;18.70;96.20;;;;;;4898884;29;20055;-94
2023/06/03 09:17:58;;;;;;;2.58;0.63;;;18.90;95.90;;;;;;4900650;29;20043;-96
2023/06/03 09:20:24;;;;;;;1.48;0.45;;;18.90;95.20;;;;;;4899661;29;20102;-94
2023/06/03 09:22:59;;;;;;;4.65;0.55;;;19.00;94.70;;;;;;4899093;29;20477;-95
2023/06/03 09:25:25;;;;;;;3.33;0.60;;;19.10;93.50;;;;;;4910981;29;20058;-94
2023/06/03 09:28:01;;;;;;;2.95;0.50;;;19.20;93.40;;;;;;4915794;29;20040;-94
2023/06/03 09:30:40;;;;;;;1.50;0.52;;;19.30;92.90;;;;;;4897117;29;20047;-96
2023/06/03 09:33:06;;;;;;;1.58;0.70;;;19.40;91.40;;;;;;4897936;29;20044;-96
2023/06/03 09:35:31;;;;;;;3.33;0.60;;;19.30;91.50;;;;;;4928110;29;20047;-94
2023/06/03 09:38:04;;;;;;;1.15;0.50;;;19.40;91.80;;;;;;4918612;29;20055;-94
2023/06/03 09:40:31;;;;;;;5.65;0.68;;;19.50;91.70;;;;;;4918186;29;20055;-94
2023/06/03 09:42:58;;;;;;;5.35;0.75;;;19.60;91.90;;;;;;4911913;29;20048;-94
2023/06/03 09:45:42;;;;;;;4.95;0.65;;;19.60;91.80;;;;;;4899280;29;20051;-94
2023/06/03 09:48:26;;;;;;;4.70;0.68;;;19.70;91.50;;;;;;4900450;29;20098;-93
2023/06/03 09:51:10;;;;;;;3.97;0.57;;;19.80;91.60;;;;;;4914289;29;20051;-96
2023/06/03 09:53:42;;;;;;;3.08;0.50;;;19.90;91.90;;;;;;4900492;29;20135;-95
2023/06/03 09:56:25;;;;;;;5.10;0.60;;;20.10;92.40;;;;;;4915466;29;20108;-95
2023/06/03 09:59:21;;;;;;;2.50;0.45;;;20.20;91.50;;;;;;4915017;29;20456;-94
2023/06/03 10:01:51;;;;;;;1.63;0.50;;;20.20;91.40;;;;;;4915982;29;20607;-94
2023/06/03 10:04:23;;;;;;;4.70;0.60;;;20.20;91.30;;;;;;4898842;29;20083;-95
2023/06/03 10:07:07;;;;;;;1.52;0.50;;;20.20;89.60;;;;;;4884469;29;20056;-95
2023/06/03 10:09:54;;;;;;;2.40;0.52;;;20.20;88.40;;;;;;4881069;29;20501;-94
2023/06/03 10:12:33;;;;;;;2.90;0.50;;;20.50;89.50;;;;;;4912615;29;20048;-95
2023/06/03 10:14:59;;;;;;;1.88;0.60;;;20.30;90.30;;;;;;4881789;29;20048;-95
2023/06/03 10:17:25;;;;;;;15.52;0.90;;;20.40;89.70;;;;;;4883560;29;20060;-94
2023/06/03 10:20:03;;;;;;;4.45;0.70;;;20.40;90.00;;;;;;4884838;29;20052;-94
2023/06/03 10:22:34;;;;;;;1.98;0.40;;;20.40;89.10;;;;;;4901573;29;20048;-95
2023/06/03 10:25:01;;;;;;;4.03;1.15;;;20.40;88.10;;;;;;4883277;29;20036;-94
2023/06/03 10:27:27;;;;;;;5.82;0.60;;;20.40;87.30;;;;;;4899946;29;20059;-95
2023/06/03 10:29:56;;;;;;;9.18;0.70;;;20.40;89.10;;;;;;4885786;29;20044;-94
2023/06/03 10:32:29;;;;;;;4.70;0.80;;;20.50;89.50;;;;;;4883293;29;20483;-96
2023/06/03 10:34:59;;;;;;;4.30;0.80;;;20.50;86.70;;;;;;4881022;29;20055;-96
2023/06/03 10:37:25;;;;;;;3.85;0.70;;;20.50;86.60;;;;;;4895592;29;20048;-96
2023/06/03 10:39:54;;;;;;;7.03;0.93;;;20.50;86.10;;;;;;4887848;29;20084;-96
2023/06/03 10:42:23;;;;;;;5.60;0.75;;;20.40;87.10;;;;;;4901597;29;20135;-96
2023/06/03 10:44:49;;;;;;;5.85;0.55;;;20.50;86.50;;;;;;4883719;29;20359;-95
2023/06/03 10:47:24;;;;;;;3.25;0.80;;;20.60;88.00;;;;;;4881342;29;20063;-96
2023/06/03 10:49:56;;;;;;;2.67;0.68;;;20.60;86.60;;;;;;4899192;29;20044;-96
2023/06/03 10:52:49;;;;;;;4.15;0.80;;;20.60;87.50;;;;;;4882774;29;20040;-96
2023/06/03 10:55:30;;;;;;;7.00;0.60;;;20.70;85.10;;;;;;4889056;29;20048;-96
2023/06/03 10:58:05;;;;;;;3.60;0.75;;;20.80;85.10;;;;;;4899664;29;20051;-96
2023/06/03 11:00:56;;;;;;;3.50;0.50;;;20.80;84.30;;;;;;4885324;29;20135;-96
2023/06/03 11:03:26;;;;;;;2.92;0.88;;;20.90;85.30;;;;;;4887025;29;20056;-96
2023/06/03 11:06:25;;;;;;;3.75;0.60;;;20.90;83.20;;;;;;4885651;29;20044;-96
2023/06/03 11:09:08;;;;;;;3.72;0.93;;;20.90;82.50;;;;;;4917944;29;20051;-96
2023/06/03 11:11:41;;;;;;;4.32;0.70;;;20.90;83.40;;;;;;4916731;29;20050;-96
2023/06/03 11:14:49;;;;;;;3.20;1.27;;;21.00;83.90;;;;;;4903364;29;20083;-96
2023/06/03 11:17:18;;;;;;;5.57;0.57;;;21.00;83.10;;;;;;4929543;29;20040;-96
2023/06/03 11:20:05;;;;;;;3.97;0.52;;;21.10;84.30;;;;;;4923799;29;20529;-96
2023/06/03 11:23:03;;;;;;;3.65;0.70;;;21.10;82.40;;;;;;4953375;29;20051;-96
2023/06/03 11:25:31;;;;;;;5.05;0.75;;;21.20;84.90;;;;;;4919376;29;20058;-93
2023/06/03 11:28:37;;;;;;;3.63;0.50;;;21.30;85.60;;;;;;4935131;28;20060;-96
2023/06/03 11:31:04;;;;;;;6.68;0.80;;;21.30;80.60;;;;;;4912954;29;20058;-96
2023/06/03 11:33:39;;;;;;;2.90;0.80;;;21.30;80.80;;;;;;4928981;29;20082;-96
2023/06/03 11:36:42;;;;;;;1.40;0.60;;;21.30;82.00;;;;;;4936267;29;20047;-96
2023/06/03 11:42:11;;;;;;;5.90;0.55;;;21.40;82.70;;;;;;5619221;23;20059;-96
2023/06/03 11:44:39;;;;;;;2.83;0.60;;;21.60;82.40;;;;;;4938879;29;20043;-96
2023/06/03 11:47:05;;;;;;;1.45;0.40;;;21.70;80.30;;;;;;4956803;29;20039;-96
2023/06/03 11:49:36;;;;;;;3.53;0.90;;;21.70;78.80;;;;;;4935533;29;20822;-96
2023/06/03 11:52:10;;;;;;;2.33;0.60;;;21.80;79.20;;;;;;4962893;28;20058;-96
2023/06/03 11:54:48;;;;;;;;;;;;;;;;;;;;;
2023/06/03 12:00:07;;;;;;;3.53;0.60;;;21.80;78.80;;;;;;5193766;23;20252;-96
2023/06/03 12:02:37;;;;;;;1.27;0.40;;;21.80;77.20;;;;;;4938945;29;20054;-96
2023/06/03 12:07:38;;;;;;;2.67;0.50;;;21.90;80.80;;;;;;4972506;28;20043;-96
2023/06/03 12:10:05;;;;;;;2.58;0.50;;;22.00;79.20;;;;;;4941949;29;20106;-96
2023/06/03 12:12:37;;;;;;;7.60;0.80;;;22.10;79.20;;;;;;4928198;29;20058;-96
2023/06/03 12:15:06;;;;;;;5.93;0.55;;;22.00;78.10;;;;;;4925623;29;20211;-96
2023/06/03 12:17:33;;;;;;;4.35;0.50;;;22.00;78.70;;;;;;4920716;29;20047;-96
2023/06/03 12:20:00;;;;;;;2.67;0.60;;;21.90;79.00;;;;;;4923232;29;20047;-96
2023/06/03 12:22:27;;;;;;;2.85;0.57;;;21.80;79.00;;;;;;4917140;29;20567;-96
2023/06/03 12:24:53;;;;;;;3.22;0.60;;;21.90;79.10;;;;;;4930188;29;20066;-96
2023/06/03 12:27:22;;;;;;;4.47;0.68;;;21.90;78.60;;;;;;4916433;29;20048;-96
2023/06/03 12:29:51;;;;;;;2.88;0.63;;;21.80;78.70;;;;;;4919338;29;20083;-96
2023/06/03 12:32:17;;;;;;;5.60;0.70;;;21.80;78.10;;;;;;4943330;29;20043;-96
2023/06/03 12:34:46;;;;;;;3.17;0.70;;;21.80;78.90;;;;;;4921986;29;20111;-96
2023/06/03 12:37:26;;;;;;;1.63;0.50;;;21.80;77.80;;;;;;4938527;29;20054;-96
2023/06/03 12:39:52;;;;;;;3.03;0.90;;;21.80;77.80;;;;;;4913996;29;20063;-96
2023/06/03 12:42:20;;;;;;;4.18;0.82;;;21.70;77.70;;;;;;4920953;29;20047;-96
2023/06/03 12:44:52;;;;;;;7.07;0.88;;;21.60;78.30;;;;;;4922837;29;20043;-96
2023/06/03 12:47:19;;;;;;;5.03;0.80;;;21.50;78.00;;;;;;4922307;29;20069;-96
2023/06/03 12:50:03;;;;;;;3.80;0.82;;;21.50;79.00;;;;;;4921771;29;20211;-95
2023/06/03 12:52:31;;;;;;;3.60;0.73;;;21.40;78.20;;;;;;4920784;29;20496;-96
2023/06/03 12:54:56;;;;;;;3.00;0.60;;;21.30;79.00;;;;;;4916972;29;20047;-96
2023/06/03 12:57:22;;;;;;;3.45;0.93;;;21.20;78.60;;;;;;4907206;29;20074;-96
2023/06/03 13:00:00;;;;;;;3.10;0.80;;;21.20;78.40;;;;;;4918680;29;20044;-96
2023/06/03 13:02:27;;;;;;;1.95;0.52;;;21.20;79.40;;;;;;4932739;29;20047;-96
2023/06/03 13:04:53;;;;;;;5.50;0.88;;;21.20;79.30;;;;;;4923352;29;20050;-96
2023/06/03 13:07:22;;;;;;;4.65;0.80;;;21.20;79.60;;;;;;4921924;29;20062;-96
2023/06/03 13:09:48;;;;;;;1.98;0.43;;;21.10;79.20;;;;;;4920549;29;20103;-96
2023/06/03 13:12:13;;;;;;;2.58;0.70;;;21.10;78.00;;;;;;4920412;29;20051;-96
2023/06/03 13:14:40;;;;;;;2.47;0.68;;;21.00;78.40;;;;;;4905454;29;20333;-95
2023/06/03 13:17:07;;;;;;;2.35;0.57;;;21.00;79.70;;;;;;4914282;29;20157;-95
2023/06/03 13:19:36;;;;;;;2.97;0.60;;;21.00;81.10;;;;;;4931287;29;20053;-95
2023/06/03 13:22:21;;;;;;;5.70;0.60;;;21.00;80.40;;;;;;4921066;29;20038;-96
2023/06/03 13:24:47;;;;;;;0.95;0.60;;;20.90;80.30;;;;;;4938196;29;20081;-95
2023/06/03 13:27:13;;;;;;;8.25;0.60;;;20.90;80.90;;;;;;4917536;29;20512;-95
2023/06/03 13:29:39;;;;;;;5.35;0.60;;;20.90;81.40;;;;;;4933483;29;20058;-95
2023/06/03 13:32:07;;;;;;;3.20;0.57;;;21.00;81.60;;;;;;4909240;29;20175;-95
2023/06/03 13:34:34;;;;;;;4.43;0.90;;;20.90;82.70;;;;;;4918256;29;20058;-96
2023/06/03 13:37:00;;;;;;;3.95;0.70;;;21.00;82.00;;;;;;4921073;29;20134;-95
2023/06/03 13:39:27;;;;;;;2.10;0.50;;;21.00;82.50;;;;;;4916135;29;20055;-95
2023/06/03 13:41:54;;;;;;;5.53;0.52;;;21.00;82.00;;;;;;4913485;29;20039;-95
2023/06/03 13:44:20;;;;;;;2.67;0.50;;;21.00;81.30;;;;;;4919977;28;20047;-96
2023/06/03 13:46:50;;;;;;;6.32;0.90;;;21.00;82.00;;;;;;4923457;29;20070;-95
2023/06/03 13:49:16;;;;;;;3.47;0.98;;;20.90;81.40;;;;;;4924147;29;20043;-95
2023/06/03 13:51:43;;;;;;;3.78;0.50;;;20.80;81.10;;;;;;4924259;29;20043;-96
2023/06/03 13:54:09;;;;;;;4.47;1.35;;;20.80;81.20;;;;;;4913253;29;20047;-95
2023/06/03 13:56:35;;;;;;;6.78;0.70;;;20.80;81.80;;;;;;4923511;29;20031;-95
2023/06/03 13:59:02;;;;;;;2.78;0.52;;;20.80;82.90;;;;;;4949751;29;20043;-96
2023/06/03 14:01:28;;;;;;;3.15;0.70;;;20.80;81.70;;;;;;4932360;29;20039;-96
2023/06/03 14:03:54;;;;;;;4.18;0.75;;;20.80;82.00;;;;;;4923245;29;20459;-95
2023/06/03 14:06:21;;;;;;;4.07;0.68;;;20.80;81.70;;;;;;4922107;29;20047;-95
2023/06/03 14:08:47;;;;;;;6.00;0.75;;;20.70;82.20;;;;;;4923656;29;20114;-94
2023/06/03 14:11:14;;;;;;;4.90;0.60;;;20.60;83.30;;;;;;4923070;29;20118;-94
2023/06/03 14:13:40;;;;;;;1.45;0.50;;;20.60;82.50;;;;;;4919229;29;20051;-96
2023/06/03 14:16:05;;;;;;;1.88;0.50;;;20.70;82.80;;;;;;4910747;29;20149;-95
2023/06/03 14:18:31;;;;;;;5.78;0.70;;;20.60;83.50;;;;;;4911820;29;20052;-95
2023/06/03 14:20:57;;;;;;;5.88;0.60;;;20.50;83.30;;;;;;4922414;29;20498;-95
2023/06/03 14:23:23;;;;;;;3.75;0.57;;;20.60;83.70;;;;;;4938580;29;20046;-96
2023/06/03 14:25:49;;;;;;;2.50;0.63;;;20.50;83.50;;;;;;4915838;29;20095;-96
2023/06/03 14:28:15;;;;;;;3.65;0.60;;;20.60;83.00;;;;;;4913231;29;20047;-94
2023/06/03 14:30:41;;;;;;;2.88;0.60;;;20.50;82.90;;;;;;4921886;29;20046;-94
2023/06/03 14:33:07;;;;;;;5.60;0.73;;;20.40;83.10;;;;;;4922950;29;20039;-93
2023/06/03 14:35:32;;;;;;;3.75;0.70;;;20.50;84.80;;;;;;4921223;29;20835;-95
2023/06/03 14:37:58;;;;;;;4.32;0.60;;;20.50;84.60;;;;;;4918736;29;20115;-96
2023/06/03 14:40:24;;;;;;;6.32;0.70;;;20.60;84.40;;;;;;4915305;29;20058;-94
2023/06/03 14:42:50;;;;;;;1.65;0.65;;;20.60;84.40;;;;;;4919975;29;20502;-94
2023/06/03 14:45:15;;;;;;;2.42;0.70;;;20.60;83.60;;;;;;4915606;29;20106;-94
2023/06/03 14:47:41;;;;;;;2.72;0.60;;;20.70;83.70;;;;;;4909683;29;20051;-94
2023/06/03 14:50:07;;;;;;;2.70;0.70;;;20.70;83.80;;;;;;4922037;29;20523;-95
2023/06/03 14:52:33;;;;;;;2.08;0.38;;;20.70;84.30;;;;;;4906561;29;20059;-94